Time;durP1;ratioP1;P1;durP2;ratioP2;P2;SDS_P1;SDS_P2;PMS_P1;PMS_P2;Temp;Humidity;BMP_temperature;BMP_pressure;BME280_temperature;BME280_humidity;BME280_pressure;Samples;Min_cycle;Max_cycle;Signal;HPM_P1;HPM_P2
2022/05/23 00:02:00;;;;;;;7.63;3.22;;;;;;;17.75;62.94;100882.13;6330882;22;20006;-62
2022/05/23 00:04:26;;;;;;;9.68;3.65;;;;;;;17.73;62.61;100885.84;6329653;22;20078;-62
2022/05/23 00:06:52;;;;;;;5.15;3.15;;;;;;;17.73;62.70;100877.88;6329468;22;20045;-62
2022/05/23 00:09:18;;;;;;;7.20;3.25;;;;;;;17.72;62.39;100877.00;6301893;22;20113;-62
2022/05/23 00:11:44;;;;;;;8.57;3.30;;;;;;;17.75;62.55;100886.59;6330521;22;20373;-62
2022/05/23 00:14:10;;;;;;;9.50;3.70;;;;;;;17.69;62.99;100874.53;6329283;22;20034;-62
2022/05/23 00:16:42;;;;;;;12.93;3.55;;;;;;;17.74;62.38;100869.78;6329175;22;19999;-62
2022/05/23 00:19:10;;;;;;;8.38;3.58;;;;;;;17.74;62.48;100869.78;6329979;22;20007;-61
2022/05/23 00:21:37;;;;;;;7.28;3.47;;;;;;;17.69;62.69;100861.19;6329583;22;20493;-62
2022/05/23 00:24:03;;;;;;;7.25;3.38;;;;;;;17.70;62.79;100864.72;6331075;22;20010;-61
2022/05/23 00:26:28;;;;;;;11.98;4.07;;;;;;;17.70;62.75;100848.75;6302852;22;20015;-62
2022/05/23 00:28:54;;;;;;;5.15;3.63;;;;;;;17.68;63.20;100844.38;6329961;22;20003;-62
2022/05/23 00:31:19;;;;;;;9.32;4.47;;;;;;;17.63;63.07;100846.47;6329816;22;20003;-63
2022/05/23 00:36:30;;;;;;;13.10;4.70;;;;;;;17.71;63.06;100834.47;6330682;22;20021;-62
2022/05/23 00:38:56;;;;;;;11.55;3.78;;;;;;;17.65;62.77;100828.59;6330920;22;20052;-61
2022/05/23 00:44:23;;;;;;;9.13;4.22;;;;;;;17.64;63.66;100820.69;6328602;22;20458;-62
2022/05/23 00:46:59;;;;;;;10.02;3.95;;;;;;;17.56;64.05;100818.50;6329136;22;20006;-62
2022/05/23 00:49:27;;;;;;;9.20;3.90;;;;;;;17.53;64.01;100824.03;6328065;22;20003;-61
2022/05/23 00:51:53;;;;;;;6.22;3.30;;;;;;;17.50;64.17;100824.22;6330727;22;20367;-61
2022/05/23 00:54:19;;;;;;;6.50;3.40;;;;;;;17.51;64.25;100823.25;6302775;22;20003;-60
2022/05/23 00:56:48;;;;;;;8.48;3.70;;;;;;;17.45;64.48;100815.69;6330749;22;20007;-63
2022/05/23 00:59:19;;;;;;;8.90;4.00;;;;;;;17.38;64.61;100815.22;6329410;22;20064;-62
2022/05/23 01:01:44;;;;;;;9.82;3.83;;;;;;;17.38;64.66;100809.88;6330022;22;20003;-61
2022/05/23 01:04:09;;;;;;;7.03;3.83;;;;;;;17.36;64.74;100811.78;6300457;22;20482;-60
2022/05/23 01:06:35;;;;;;;5.90;3.78;;;;;;;17.30;65.07;100813.03;6312375;22;20020;-62
2022/05/23 01:09:01;;;;;;;9.23;3.40;;;;;;;17.28;65.12;100807.78;6266529;22;20017;-61
2022/05/23 01:11:26;;;;;;;10.38;4.15;;;;;;;17.23;65.17;100811.69;6268616;22;20218;-62
2022/05/23 01:13:53;;;;;;;8.23;4.15;;;;;;;17.16;65.66;100805.91;6268339;22;20035;-61
2022/05/23 01:16:23;;;;;;;11.40;4.53;;;;;;;17.14;65.37;100807.81;6266936;22;20007;-61
2022/05/23 01:18:49;;;;;;;7.70;3.33;;;;;;;17.08;65.42;100806.38;6267162;22;20003;-61
2022/05/23 01:21:26;;;;;;;9.25;4.53;;;;;;;17.01;66.12;100800.53;6265619;22;20075;-62
2022/05/23 01:24:00;;;;;;;7.32;3.55;;;;;;;16.97;66.33;100803.50;6241015;22;20053;-62
2022/05/23 01:26:26;;;;;;;8.13;4.32;;;;;;;16.97;66.42;100806.16;6239521;22;20049;-63
2022/05/23 01:28:51;;;;;;;5.28;3.75;;;;;;;16.90;66.60;100806.56;6267740;22;20019;-62
2022/05/23 01:31:17;;;;;;;6.25;4.05;;;;;;;16.86;66.81;100810.31;6266182;22;20006;-62
2022/05/23 01:33:42;;;;;;;8.27;4.03;;;;;;;16.82;66.67;100811.47;6267031;22;20430;-61
2022/05/23 01:36:13;;;;;;;6.93;3.83;;;;;;;16.75;66.98;100810.13;6239115;22;20010;-62
2022/05/23 01:38:38;;;;;;;11.73;4.28;;;;;;;16.70;67.53;100809.56;6267876;22;20371;-63
2022/05/23 01:41:04;;;;;;;7.28;3.70;;;;;;;16.66;67.59;100808.88;6266877;22;20053;-62
2022/05/23 01:43:30;;;;;;;8.65;3.95;;;;;;;16.62;67.66;100799.38;6267953;22;20431;-61
2022/05/23 01:45:55;;;;;;;6.47;3.95;;;;;;;16.60;67.54;100793.28;6268034;22;20050;-61
2022/05/23 01:48:20;;;;;;;12.70;4.28;;;;;;;16.60;67.61;100796.81;6266254;22;20407;-62
2022/05/23 01:50:46;;;;;;;7.03;3.88;;;;;;;16.58;67.57;100797.88;6266661;22;20030;-62
2022/05/23 01:53:11;;;;;;;10.10;4.35;;;;;;;16.53;67.83;100792.81;6266479;22;20079;-62
2022/05/23 01:55:36;;;;;;;12.20;4.38;;;;;;;16.51;68.52;100795.56;6266914;22;20124;-63
2022/05/23 01:58:03;;;;;;;6.95;3.97;;;;;;;16.56;68.08;100797.97;6267985;22;20077;-62
2022/05/23 02:03:12;;;;;;;7.32;4.00;;;;;;;16.60;67.39;100786.19;6265989;22;20081;-62
2022/05/23 02:05:37;;;;;;;8.68;4.55;;;;;;;16.61;67.51;100785.22;6266340;22;20083;-63
2022/05/23 02:08:03;;;;;;;6.75;4.28;;;;;;;16.55;67.65;100778.47;6265839;22;20015;-61
2022/05/23 02:10:29;;;;;;;9.82;3.80;;;;;;;16.57;67.44;100780.19;6239273;22;20010;-62
2022/05/23 02:12:56;;;;;;;9.35;4.10;;;;;;;16.58;67.00;100782.75;6215864;22;20073;-61
2022/05/23 02:15:21;;;;;;;6.45;4.78;;;;;;;16.54;67.79;100773.25;6267214;22;20007;-61
2022/05/23 02:17:47;;;;;;;11.75;4.45;;;;;;;16.50;68.31;100782.38;6266693;22;20012;-61
2022/05/23 02:20:13;;;;;;;7.95;4.15;;;;;;;16.50;67.70;100782.38;6267558;22;19992;-62
2022/05/23 02:22:38;;;;;;;8.45;4.32;;;;;;;16.52;68.20;100780.44;6267184;22;20007;-62
2022/05/23 02:25:05;;;;;;;8.98;4.50;;;;;;;16.54;68.09;100773.25;6266150;22;20000;-62
2022/05/23 02:27:30;;;;;;;9.35;4.85;;;;;;;16.54;67.94;100773.25;6268087;22;20165;-61
2022/05/23 02:29:57;;;;;;;8.85;4.63;;;;;;;16.55;67.79;100764.31;6266920;22;20015;-61
2022/05/23 02:32:22;;;;;;;8.48;3.80;;;;;;;16.55;67.57;100766.97;6264659;22;20432;-62
2022/05/23 02:34:48;;;;;;;8.13;3.92;;;;;;;16.61;67.24;100758.63;6268003;22;20006;-61
2022/05/23 02:37:13;;;;;;;7.05;4.03;;;;;;;16.59;67.54;100755.22;6265016;22;20012;-61
2022/05/23 02:39:38;;;;;;;7.22;3.80;;;;;;;16.64;67.24;100752.25;6266850;22;20061;-62
2022/05/23 02:42:04;;;;;;;7.75;4.60;;;;;;;16.59;67.60;100747.25;6265197;22;19999;-62
2022/05/23 02:44:29;;;;;;;6.97;4.10;;;;;;;16.61;67.59;100744.47;6265782;22;20053;-62
2022/05/23 02:46:55;;;;;;;9.38;4.20;;;;;;;16.62;68.05;100736.38;6265261;22;19999;-62
2022/05/23 02:49:21;;;;;;;10.63;4.15;;;;;;;16.60;68.35;100732.97;6240580;22;21037;-61
2022/05/23 02:51:46;;;;;;;9.27;4.15;;;;;;;16.64;68.30;100723.84;6267898;22;20325;-61
2022/05/23 02:54:11;;;;;;;13.63;4.65;;;;;;;16.75;67.86;100720.53;6269427;22;20003;-62
2022/05/23 02:56:37;;;;;;;9.88;4.53;;;;;;;16.67;68.50;100715.69;6269572;22;20000;-62
2022/05/23 02:59:03;;;;;;;6.20;3.80;;;;;;;16.70;68.14;100711.16;6241777;22;20050;-62
2022/05/23 03:01:28;;;;;;;8.73;3.95;;;;;;;16.75;68.09;100707.25;6268992;22;20329;-62
2022/05/23 03:03:54;;;;;;;14.60;4.55;;;;;;;16.88;67.71;100702.00;6268532;22;20027;-62
2022/05/23 03:06:19;;;;;;;8.18;3.72;;;;;;;16.78;67.96;100690.22;6240596;22;20469;-62
2022/05/23 03:08:44;;;;;;;10.90;4.20;;;;;;;16.79;68.16;100692.78;6242317;22;20431;-62
2022/05/23 03:11:10;;;;;;;11.65;3.92;;;;;;;16.76;68.21;100681.47;6267608;22;20054;-62
2022/05/23 03:13:36;;;;;;;7.40;4.40;;;;;;;16.85;68.03;100670.25;6269830;22;20004;-62
2022/05/23 03:16:05;;;;;;;10.95;4.32;;;;;;;16.86;67.98;100666.63;6268785;22;20010;-63
2022/05/23 03:18:30;;;;;;;;;;;;;;;16.89;67.65;100662.94;6242268;22;20078;-61
2022/05/23 03:20:58;;;;;;;9.35;3.78;;;;;;;16.89;67.29;100653.13;6269650;22;19942;-61
2022/05/23 03:26:58;;;;;;;8.15;4.13;;;;;;;16.65;68.25;100648.41;6268428;22;20015;-63
2022/05/23 03:29:01;;;;;;;10.38;4.90;;;;;;;16.64;68.43;100640.53;6247428;22;20057;-61
2022/05/23 03:31:27;;;;;;;4.68;3.60;;;;;;;16.64;68.44;100630.75;6268669;22;20034;-61
2022/05/23 03:33:53;;;;;;;10.75;4.05;;;;;;;16.59;68.43;100627.56;6268496;22;20007;-63
2022/05/23 03:36:19;;;;;;;7.43;3.90;;;;;;;16.66;68.29;100623.53;6267721;22;20066;-63
2022/05/23 03:38:44;;;;;;;8.60;3.95;;;;;;;16.71;68.16;100625.91;6268873;22;20305;-63
2022/05/23 03:41:10;;;;;;;10.48;4.18;;;;;;;16.61;68.38;100624.75;6268894;22;20327;-63
2022/05/23 03:43:36;;;;;;;6.25;3.55;;;;;;;16.61;68.38;100615.00;6269076;22;20410;-63
2022/05/23 03:46:06;;;;;;;8.10;3.72;;;;;;;16.57;68.53;100612.63;6268460;22;20034;-63
2022/05/23 03:48:32;;;;;;;9.13;4.63;;;;;;;16.46;69.22;100610.66;6267576;22;20008;-64
2022/05/23 03:50:57;;;;;;;9.95;4.45;;;;;;;16.49;69.25;100600.66;6269810;22;20096;-62
2022/05/23 03:53:23;;;;;;;7.22;3.70;;;;;;;16.59;68.88;100589.44;6266679;22;20424;-62
2022/05/23 03:55:50;;;;;;;7.47;3.70;;;;;;;16.67;68.51;100587.13;6267651;22;20007;-62
2022/05/23 03:58:16;;;;;;;17.30;4.15;;;;;;;16.58;68.85;100585.09;6268808;22;20364;-62
2022/05/23 04:00:44;;;;;;;5.57;3.50;;;;;;;16.56;68.89;100590.50;6268136;22;20083;-62
2022/05/23 04:03:09;;;;;;;6.80;3.97;;;;;;;16.64;68.70;100593.53;6267491;22;20004;-62
2022/05/23 04:05:34;;;;;;;9.15;3.95;;;;;;;16.68;68.79;100588.88;6268333;22;20121;-62
2022/05/23 04:08:00;;;;;;;7.75;3.40;;;;;;;16.74;68.41;100591.09;6268071;22;20022;-62
2022/05/23 04:10:25;;;;;;;10.80;4.30;;;;;;;16.65;68.60;100589.91;6266463;22;20035;-62
2022/05/23 04:12:50;;;;;;;10.90;4.30;;;;;;;16.60;69.03;100592.00;6268326;22;20090;-62
2022/05/23 04:15:15;;;;;;;11.63;4.63;;;;;;;16.60;69.23;100585.81;6268077;22;20003;-61
2022/05/23 04:17:41;;;;;;;6.68;3.40;;;;;;;16.67;68.78;100588.00;6240682;22;20003;-61
2022/05/23 04:20:08;;;;;;;10.77;3.30;;;;;;;16.72;68.36;100586.84;6267151;22;20205;-62
2022/05/23 04:22:34;;;;;;;11.80;4.45;;;;;;;16.73;68.79;100580.56;6268591;22;19999;-62
2022/05/23 04:24:59;;;;;;;8.55;3.88;;;;;;;16.75;68.57;100584.00;6267139;22;20003;-62
2022/05/23 04:27:25;;;;;;;7.32;3.72;;;;;;;16.73;68.60;100584.09;6268139;22;20336;-63
2022/05/23 04:29:50;;;;;;;8.95;4.07;;;;;;;16.65;69.28;100581.09;6266961;22;20346;-62
2022/05/23 04:35:14;;;;;;;8.88;4.22;;;;;;;16.57;69.64;100581.56;6269137;22;20157;-62
2022/05/23 04:37:45;;;;;;;6.28;3.85;;;;;;;16.60;69.46;100576.06;6268280;22;19996;-61
2022/05/23 04:40:16;;;;;;;7.18;3.72;;;;;;;16.70;69.09;100565.66;6267542;22;20000;-61
2022/05/23 04:42:41;;;;;;;6.88;3.95;;;;;;;16.75;69.23;100565.38;6267876;22;20003;-61
2022/05/23 04:45:08;;;;;;;7.55;4.30;;;;;;;16.70;69.56;100559.50;6267638;22;20439;-61
2022/05/23 04:50:17;;;;;;;5.50;3.10;;;;;;;16.70;69.80;100551.53;6267851;22;20529;-63
2022/05/23 04:52:43;;;;;;;8.55;4.25;;;;;;;16.75;69.85;100541.44;6268268;22;19992;-62
2022/05/23 04:55:09;;;;;;;9.77;4.88;;;;;;;16.84;69.56;100540.84;6267740;22;20420;-62
2022/05/23 04:57:34;;;;;;;7.05;4.03;;;;;;;16.98;69.30;100531.09;6267106;22;20438;-63
2022/05/23 05:00:02;;;;;;;9.27;4.50;;;;;;;16.97;69.52;100524.91;6268739;22;20027;-62
2022/05/23 05:02:28;;;;;;;11.07;4.65;;;;;;;17.15;68.65;100522.88;6263957;22;20010;-62
2022/05/23 05:04:53;;;;;;;15.75;4.40;;;;;;;17.16;68.94;100523.72;6267959;22;19996;-61
2022/05/23 05:07:18;;;;;;;8.70;4.50;;;;;;;17.32;68.68;100522.69;6266787;22;20086;-62
2022/05/23 05:09:44;;;;;;;11.05;4.35;;;;;;;17.37;67.50;100520.56;6267146;22;20000;-62
2022/05/23 05:12:09;;;;;;;9.55;4.10;;;;;;;17.68;66.94;100514.00;6266437;22;20004;-62
2022/05/23 05:14:34;;;;;;;12.10;4.78;;;;;;;17.58;67.81;100515.56;6266974;22;20004;-63
2022/05/23 05:17:00;;;;;;;9.45;4.05;;;;;;;17.72;67.51;100511.09;6266247;22;19992;-62
2022/05/23 05:19:26;;;;;;;16.17;4.95;;;;;;;17.64;66.93;100509.81;6240106;22;20014;-63
2022/05/23 05:21:52;;;;;;;10.52;4.63;;;;;;;17.75;67.61;100513.53;6266578;22;20046;-62
2022/05/23 05:24:17;;;;;;;10.35;4.78;;;;;;;17.73;67.43;100500.31;6267446;22;20380;-64
2022/05/23 05:26:43;;;;;;;7.18;4.20;;;;;;;17.79;67.28;100493.75;6239297;22;20278;-63
2022/05/23 05:29:08;;;;;;;11.00;4.32;;;;;;;17.89;66.89;100505.47;6267156;22;20000;-64
2022/05/23 05:31:45;;;;;;;11.98;4.82;;;;;;;17.95;66.31;100490.84;6266737;22;20007;-62
2022/05/23 05:34:46;;;;;;;10.05;4.78;;;;;;;18.04;65.61;100484.00;6214795;22;20008;-62
2022/05/23 05:37:21;;;;;;;19.35;5.15;;;;;;;18.17;65.03;100473.31;6214918;22;20332;-62
2022/05/23 05:39:47;;;;;;;10.70;4.75;;;;;;;18.15;64.95;100472.59;6238250;22;20012;-64
2022/05/23 05:42:30;;;;;;;10.25;4.65;;;;;;;18.29;64.86;100472.44;6264778;22;20328;-63
2022/05/23 05:45:04;;;;;;;10.45;4.60;;;;;;;18.34;65.10;100468.59;6214638;22;20008;-62
2022/05/23 05:47:30;;;;;;;12.88;5.50;;;;;;;18.56;64.40;100473.19;6213916;22;20037;-62
2022/05/23 05:50:00;;;;;;;9.95;4.72;;;;;;;18.41;64.90;100470.69;6240528;22;20004;-62
2022/05/23 05:52:28;;;;;;;10.88;4.55;;;;;;;18.41;65.39;100464.50;6265543;22;20082;-62
2022/05/23 05:54:54;;;;;;;12.52;5.07;;;;;;;18.56;65.31;100467.84;6267822;22;20007;-62
2022/05/23 05:57:20;;;;;;;10.73;4.88;;;;;;;18.62;65.16;100464.75;6240088;22;20006;-63
2022/05/23 05:59:45;;;;;;;10.13;4.70;;;;;;;18.67;64.65;100470.56;6267822;22;20030;-62
2022/05/23 06:02:11;;;;;;;11.63;5.03;;;;;;;18.68;64.72;100468.75;6265848;22;20004;-62
2022/05/23 06:04:36;;;;;;;13.73;5.00;;;;;;;18.87;64.03;100468.25;6266486;22;20083;-63
2022/05/23 06:12:31;;;;;;;11.60;4.75;;;;;;;18.66;65.40;100466.22;6267703;22;20022;-62
2022/05/23 06:14:57;;;;;;;8.93;4.97;;;;;;;18.73;65.29;100465.75;6267629;22;19992;-62
2022/05/23 06:17:23;;;;;;;10.00;4.95;;;;;;;18.86;65.77;100465.69;6264688;22;20353;-63
2022/05/23 06:19:48;;;;;;;9.82;5.20;;;;;;;18.79;64.74;100462.63;6264846;22;20004;-62
2022/05/23 06:22:15;;;;;;;10.15;5.57;;;;;;;18.73;65.02;100460.41;6265787;22;20363;-63
2022/05/23 06:24:41;;;;;;;9.50;4.85;;;;;;;18.93;64.87;100448.22;6266290;22;20027;-62
2022/05/23 06:27:08;;;;;;;11.48;5.13;;;;;;;19.08;64.27;100448.91;6268179;22;20003;-62
2022/05/23 06:29:34;;;;;;;13.43;5.38;;;;;;;18.90;63.90;100443.97;6268915;22;20042;-61
2022/05/23 06:32:00;;;;;;;9.77;4.55;;;;;;;19.14;64.29;100437.78;6267597;22;20034;-62
2022/05/23 06:34:25;;;;;;;12.35;4.85;;;;;;;19.34;63.42;100438.06;6268820;22;20004;-62
2022/05/23 06:36:50;;;;;;;9.60;4.90;;;;;;;19.23;63.84;100435.38;6267287;22;20488;-64
2022/05/23 06:39:17;;;;;;;8.43;4.70;;;;;;;19.25;63.42;100428.94;6268989;22;20023;-60
2022/05/23 06:41:42;;;;;;;11.25;5.30;;;;;;;19.32;63.57;100419.47;6268720;22;20000;-62
2022/05/23 06:44:08;;;;;;;17.27;5.75;;;;;;;19.45;62.89;100413.19;6268437;22;20003;-63
2022/05/23 06:46:33;;;;;;;15.23;5.68;;;;;;;19.24;63.22;100415.69;6266829;22;20485;-63
2022/05/23 06:48:59;;;;;;;13.05;5.47;;;;;;;19.14;64.64;100404.91;6268983;22;20000;-64
2022/05/23 06:51:24;;;;;;;10.40;5.10;;;;;;;19.09;64.57;100407.06;6267357;22;19999;-60
2022/05/23 06:53:50;;;;;;;10.85;5.75;;;;;;;18.99;65.47;100406.91;6267890;22;20372;-63
2022/05/23 06:56:16;;;;;;;9.57;5.28;;;;;;;19.08;65.06;100408.88;6268584;22;20319;-62
2022/05/23 06:58:41;;;;;;;11.40;6.05;;;;;;;19.07;65.20;100415.16;6240339;22;20000;-61
2022/05/23 07:01:06;;;;;;;12.40;6.38;;;;;;;19.08;65.27;100416.03;6267489;22;19999;-62
2022/05/23 07:03:32;;;;;;;10.93;5.32;;;;;;;19.33;63.91;100415.00;6267795;22;20010;-64
2022/05/23 07:14:10;;;;;;;11.88;6.03;;;;;;;19.67;63.89;100400.78;6242226;22;20054;-62
2022/05/23 07:16:35;;;;;;;14.18;6.35;;;;;;;19.79;63.96;100393.59;6242783;22;20471;-62
2022/05/23 07:19:02;;;;;;;10.85;5.55;;;;;;;19.93;63.46;100385.31;6244328;22;20038;-61
2022/05/23 07:21:28;;;;;;;9.98;5.88;;;;;;;20.20;62.16;100388.59;6244384;22;20000;-63
2022/05/23 07:23:55;;;;;;;13.27;6.22;;;;;;;20.13;62.40;100396.25;6241775;22;20015;-62
2022/05/23 07:26:20;;;;;;;11.55;6.15;;;;;;;20.11;62.76;100398.22;6241996;22;20079;-63
2022/05/23 07:28:47;;;;;;;12.27;6.50;;;;;;;19.98;62.60;100402.81;6243427;22;20140;-62
2022/05/23 07:31:14;;;;;;;11.38;6.03;;;;;;;20.24;62.50;100397.19;6242307;22;20003;-63
2022/05/23 07:33:40;;;;;;;8.50;5.90;;;;;;;20.27;62.35;100402.28;6243939;22;20082;-62
2022/05/23 07:36:06;;;;;;;10.20;5.65;;;;;;;20.18;63.32;100399.41;6243642;22;20010;-61
2022/05/23 07:38:31;;;;;;;7.95;4.97;;;;;;;20.60;61.84;100397.78;6243538;22;20011;-63
2022/05/23 07:40:58;;;;;;;12.93;6.10;;;;;;;20.64;62.69;100390.34;6243890;22;20074;-64
2022/05/23 07:43:23;;;;;;;12.07;5.88;;;;;;;20.63;62.55;100389.50;6240943;22;19996;-63
2022/05/23 07:45:50;;;;;;;13.52;6.32;;;;;;;20.71;62.63;100386.19;6243217;22;20015;-62
2022/05/23 07:48:16;;;;;;;13.23;6.63;;;;;;;20.98;60.41;100382.13;6241732;22;20435;-63
2022/05/23 07:50:43;;;;;;;10.00;6.00;;;;;;;20.92;62.02;100385.38;6244173;22;20006;-64
2022/05/23 08:01:21;;;;;;;15.77;6.88;;;;;;;21.28;61.13;100374.28;6219448;22;20376;-63
2022/05/23 08:03:46;;;;;;;9.27;6.55;;;;;;;21.46;59.04;100371.81;6243245;22;20411;-63
2022/05/23 08:06:13;;;;;;;13.88;6.35;;;;;;;21.60;58.41;100373.28;6242199;22;20011;-63
2022/05/23 08:08:38;;;;;;;12.25;6.60;;;;;;;21.72;60.50;100365.97;6243972;22;20046;-62
2022/05/23 08:11:08;;;;;;;14.80;6.43;;;;;;;21.88;58.25;100360.13;6243110;22;20425;-62
2022/05/23 08:13:34;;;;;;;12.65;6.43;;;;;;;22.15;56.83;100360.47;6242728;22;20038;-62
2022/05/23 08:16:00;;;;;;;11.43;6.88;;;;;;;21.89;56.95;100356.47;6244219;22;20000;-63
2022/05/23 08:18:26;;;;;;;11.77;7.15;;;;;;;22.01;58.99;100353.66;6241615;22;20011;-63
2022/05/23 08:20:51;;;;;;;20.63;7.95;;;;;;;21.98;58.30;100353.94;6242328;22;20097;-62
2022/05/23 08:23:16;;;;;;;14.80;7.35;;;;;;;22.13;57.77;100341.81;6242603;22;20053;-62
2022/05/23 08:25:42;;;;;;;15.10;6.95;;;;;;;22.18;57.51;100341.38;6252955;22;20026;-62
2022/05/23 08:28:07;;;;;;;12.35;7.20;;;;;;;22.06;57.24;100346.03;6267944;22;20336;-63
2022/05/23 08:30:32;;;;;;;10.15;7.00;;;;;;;22.27;56.08;100337.03;6267132;22;19999;-64
2022/05/23 08:32:58;;;;;;;15.23;7.75;;;;;;;22.24;56.27;100330.06;6267092;22;19992;-58
2022/05/23 08:35:24;;;;;;;10.80;6.47;;;;;;;22.57;56.19;100332.44;6266359;22;20003;-57
2022/05/23 08:37:51;;;;;;;13.90;7.10;;;;;;;22.35;56.55;100315.69;6267950;22;20015;-58
2022/05/23 08:40:16;;;;;;;10.02;5.28;;;;;;;22.45;56.79;100311.16;6267882;22;19999;-59
2022/05/23 08:42:56;;;;;;;11.90;6.80;;;;;;;22.70;56.95;100314.22;6268526;22;20057;-59
2022/05/23 08:45:30;;;;;;;11.02;6.55;;;;;;;23.12;55.02;100309.47;6267611;22;20008;-61
2022/05/23 08:48:20;;;;;;;12.60;6.80;;;;;;;22.69;55.97;100309.00;6216020;22;20012;-59
2022/05/23 08:51:16;;;;;;;7.75;4.70;;;;;;;22.82;55.09;100319.47;6239862;22;20003;-58
2022/05/23 08:53:51;;;;;;;11.18;6.85;;;;;;;23.30;56.63;100319.44;6267979;22;20112;-59
2022/05/23 08:56:27;;;;;;;13.15;7.25;;;;;;;23.34;55.76;100307.38;6241166;22;20598;-58
2022/05/23 08:58:55;;;;;;;11.10;6.90;;;;;;;23.56;54.31;100311.53;6240977;22;20011;-59
2022/05/23 09:01:38;;;;;;;11.07;6.32;;;;;;;23.64;53.39;100302.72;6237905;22;20258;-61
2022/05/23 09:04:09;;;;;;;9.48;4.75;;;;;;;23.94;52.54;100297.97;6266517;22;20004;-60
2022/05/23 09:06:42;;;;;;;12.90;7.15;;;;;;;23.75;52.39;100295.44;6265788;22;20012;-61
2022/05/23 09:09:09;;;;;;;13.88;6.90;;;;;;;24.01;52.10;100281.19;6239983;22;20056;-60
2022/05/23 09:11:38;;;;;;;10.50;7.15;;;;;;;23.77;53.96;100278.13;6268149;22;20008;-60
2022/05/23 09:14:08;;;;;;;11.00;5.72;;;;;;;23.94;53.16;100281.84;6267732;22;20008;-60
2022/05/23 09:16:41;;;;;;;8.75;7.03;;;;;;;24.27;53.20;100275.94;6266651;22;20008;-61
2022/05/23 09:19:23;;;;;;;10.57;7.10;;;;;;;24.19;52.88;100274.00;6239907;22;20012;-60
2022/05/23 09:24:42;;;;;;;11.40;6.53;;;;;;;24.71;50.94;100276.91;6268580;22;20336;-60
2022/05/23 09:27:37;;;;;;;9.85;6.63;;;;;;;24.69;52.26;100268.97;6267247;22;20015;-60
2022/05/23 09:30:05;;;;;;;12.15;6.70;;;;;;;24.77;51.82;100270.03;6266228;22;20015;-60
2022/05/23 09:32:53;;;;;;;8.43;6.18;;;;;;;24.57;51.69;100259.47;6267543;22;20375;-59
2022/05/23 09:35:27;;;;;;;18.65;5.05;;;;;;;24.51;50.38;100243.94;6265962;22;20031;-58
2022/05/23 09:38:04;;;;;;;14.85;7.35;;;;;;;23.98;52.76;100245.56;6268181;22;20042;-60
2022/05/23 09:40:32;;;;;;;9.50;6.97;;;;;;;23.97;53.21;100241.19;6267918;22;20311;-59
2022/05/23 09:49:11;;;;;;;14.85;9.05;;;;;;;23.73;56.36;100231.03;6267175;22;20018;-60
2022/05/23 09:51:52;;;;;;;16.15;7.05;;;;;;;23.70;55.24;100221.44;6238748;22;20089;-60
2022/05/23 09:54:22;;;;;;;10.95;8.27;;;;;;;24.10;54.04;100215.69;6267776;22;20014;-60
2022/05/23 09:56:48;;;;;;;19.15;8.35;;;;;;;23.67;55.79;100211.00;6267765;22;20018;-59
2022/05/23 09:59:33;;;;;;;15.50;8.38;;;;;;;23.76;55.79;100209.22;6240528;22;20010;-60
2022/05/23 10:02:22;;;;;;;12.88;7.80;;;;;;;23.59;55.90;100208.19;6269277;22;20413;-59
2022/05/23 10:04:49;;;;;;;;;;;;;;;23.36;58.03;100208.63;6269237;22;20007;-60
2022/05/23 10:07:27;;;;;;;15.98;8.90;;;;;;;23.23;57.98;100209.84;6269222;22;20217;-59
2022/05/23 10:10:07;;;;;;;17.20;9.32;;;;;;;23.17;57.28;100199.69;6242534;22;20000;-59
2022/05/23 10:12:33;;;;;;;12.60;8.38;;;;;;;23.34;56.93;100189.13;6242075;22;20008;-59
2022/05/23 10:15:25;;;;;;;19.15;8.15;;;;;;;23.61;55.18;100190.09;6241955;22;20037;-60
2022/05/23 10:18:05;;;;;;;12.30;8.20;;;;;;;23.90;54.48;100183.59;6268521;22;20012;-61
2022/05/23 10:20:37;;;;;;;13.48;7.68;;;;;;;23.77;55.68;100184.00;6242689;22;20332;-61
2022/05/23 10:23:21;;;;;;;12.88;8.27;;;;;;;23.65;57.57;100175.31;6242158;22;20027;-60
2022/05/23 10:26:08;;;;;;;20.70;8.20;;;;;;;23.60;55.52;100173.09;6269637;22;20078;-60
2022/05/23 10:28:36;;;;;;;15.85;7.60;;;;;;;23.75;55.50;100169.84;6242508;22;20003;-66
2022/05/23 10:31:29;;;;;;;14.43;7.38;;;;;;;23.95;53.44;100162.47;6268490;22;20011;-64
2022/05/23 10:34:11;;;;;;;13.02;7.95;;;;;;;23.92;56.26;100152.00;6237434;22;20004;-60
2022/05/23 10:36:38;;;;;;;11.00;8.80;;;;;;;24.08;54.91;100147.75;6268627;22;20356;-60
2022/05/23 10:42:26;;;;;;;14.50;9.52;;;;;;;24.19;55.42;100150.22;6268156;22;20442;-59
2022/05/23 10:45:03;;;;;;;16.50;8.85;;;;;;;24.28;52.74;100139.47;6267291;22;20015;-59
2022/05/23 10:47:39;;;;;;;14.50;9.02;;;;;;;24.38;52.18;100129.44;6239671;22;20004;-59
2022/05/23 10:50:20;;;;;;;11.88;8.30;;;;;;;24.64;52.09;100130.38;6241309;22;20050;-61
2022/05/23 10:53:30;;;;;;;11.60;7.72;;;;;;;24.78;52.29;100134.31;6242477;22;20313;-59
2022/05/23 10:56:34;;;;;;;10.55;8.48;;;;;;;24.78;53.02;100132.50;6269011;22;20010;-59
2022/05/23 10:59:08;;;;;;;11.80;8.57;;;;;;;25.20;52.40;100135.31;6249985;22;20011;-59
2022/05/23 11:01:40;;;;;;;15.88;8.43;;;;;;;25.32;51.49;100134.00;6267267;22;20039;-60
2022/05/23 11:04:16;;;;;;;12.25;7.72;;;;;;;25.33;49.23;100118.66;6241691;22;20004;-59
2022/05/23 11:07:09;;;;;;;12.07;7.57;;;;;;;25.90;47.31;100119.69;6235545;23;20019;-59
2022/05/23 11:09:47;;;;;;;10.55;6.50;;;;;;;26.72;44.67;100106.09;6237060;23;20015;-60
2022/05/23 11:12:19;;;;;;;8.88;6.28;;;;;;;26.87;45.99;100092.69;6238140;22;20012;-59
2022/05/23 11:15:21;;;;;;;11.90;7.38;;;;;;;26.63;44.73;100091.78;6238611;22;20043;-59
2022/05/23 11:18:50;;;;;;;15.27;7.22;;;;;;;26.75;45.18;100084.13;6237902;23;20379;-60
2022/05/23 11:21:27;;;;;;;16.52;7.13;;;;;;;26.78;45.22;100093.78;6166120;23;20013;-59
2022/05/23 11:23:57;;;;;;;9.57;5.57;;;;;;;27.15;45.25;100094.88;6174637;23;20060;-60
2022/05/23 11:26:28;;;;;;;12.30;7.47;;;;;;;27.49;43.81;100090.09;6219725;23;20083;-60
2022/05/23 11:34:41;;;;;;;10.45;6.50;;;;;;;25.89;48.37;100082.94;6238704;23;20018;-59
2022/05/23 11:37:42;;;;;;;17.90;8.20;;;;;;;25.82;47.58;100073.81;6236989;22;20008;-60
2022/05/23 11:40:08;;;;;;;13.93;8.55;;;;;;;25.63;48.24;100075.88;6236677;23;20455;-60
2022/05/23 11:42:42;;;;;;;12.50;8.82;;;;;;;25.57;49.28;100065.72;6236636;23;20030;-59
2022/05/23 11:47:54;;;;;;;9.45;7.60;;;;;;;25.43;49.76;100049.22;6237347;23;20047;-59
2022/05/23 11:50:25;;;;;;;16.43;9.40;;;;;;;25.38;51.20;100045.34;6236319;23;20011;-59
2022/05/23 11:53:02;;;;;;;10.57;8.02;;;;;;;25.51;49.08;100039.44;6234711;23;20524;-60
2022/05/23 11:55:53;;;;;;;30.10;10.32;;;;;;;25.19;50.21;100028.53;6237351;23;20487;-59
2022/05/23 11:58:26;;;;;;;14.32;7.65;;;;;;;25.39;49.13;100020.91;6237041;22;20043;-60
2022/05/23 12:01:05;;;;;;;13.15;7.40;;;;;;;25.07;49.08;100017.22;6236772;22;20444;-59
2022/05/23 12:03:55;;;;;;;;;;;;;;;25.11;48.47;100022.09;6237969;22;20023;-59
2022/05/23 12:06:23;;;;;;;14.43;7.35;;;;;;;24.94;50.00;100018.56;6238680;22;19914;-59
2022/05/23 12:09:11;;;;;;;14.90;7.05;;;;;;;24.86;49.42;100007.72;6267699;22;20007;-59
2022/05/23 12:11:38;;;;;;;10.38;6.50;;;;;;;24.79;50.04;100007.56;6247208;22;20076;-61
2022/05/23 12:14:27;;;;;;;13.18;7.72;;;;;;;24.79;49.88;99998.63;6267802;22;20004;-65
2022/05/23 12:16:55;;;;;;;18.23;7.63;;;;;;;24.79;51.00;99999.47;6266508;22;20003;-62
2022/05/23 12:19:26;;;;;;;11.40;7.28;;;;;;;24.72;49.96;99991.22;6268084;22;20038;-62
2022/05/23 12:21:52;;;;;;;12.90;7.75;;;;;;;24.54;52.27;99982.44;6267569;22;20042;-63
2022/05/23 12:24:23;;;;;;;8.20;6.72;;;;;;;24.47;50.69;99983.09;6267976;22;19999;-61
2022/05/23 12:26:51;;;;;;;81.65;15.02;;;;;;;24.06;53.45;99974.84;6266463;22;20022;-61
2022/05/23 12:29:38;;;;;;;15.07;9.03;;;;;;;23.91;54.33;99980.00;6240966;22;20089;-61
2022/05/23 12:32:16;;;;;;;20.60;9.73;;;;;;;23.55;55.63;99986.38;6265905;22;20642;-62
2022/05/23 12:34:43;;;;;;;12.93;9.05;;;;;;;23.28;56.06;99990.84;6268221;22;20004;-62